Time,TemperatureF,DewpointF,PressureIn,WindDirection,WindDirectionDegrees,WindSpeedMPH,WindSpeedGustMPH,Humidity,HourlyPrecipIn,Conditions,Clouds,dailyrainin,SoftwareType,DateUTC
2013-07-22 00:03:00,69.6,65.9,29.80,WSW,253,0.0,0.0,88,0.00,,,0.00,Wunderground v.1.15,2013-07-22 07:03:00,
2013-07-22 00:09:00,69.5,65.8,29.80,WSW,253,0.0,0.0,88,0.00,,,0.00,Wunderground v.1.15,2013-07-22 07:09:00,
2013-07-22 00:15:00,69.5,65.8,29.80,WSW,253,0.0,0.0,88,0.00,,,0.00,Wunderground v.1.15,2013-07-22 07:15:00,
2013-07-22 00:21:00,69.4,65.7,29.80,WSW,253,0.0,0.0,88,0.00,,,0.00,Wunderground v.1.15,2013-07-22 07:21:00,
2013-07-22 00:26:00,69.3,65.6,29.80,WSW,253,0.0,0.0,88,0.00,,,0.00,Wunderground v.1.15,2013-07-22 07:26:00,
2013-07-22 00:32:00,69.2,65.5,29.80,WSW,253,0.0,0.0,88,0.00,,,0.00,Wunderground v.1.15,2013-07-22 07:32:00,
2013-07-22 00:37:00,69.2,65.8,29.80,WSW,253,0.0,0.0,89,0.00,,,0.00,Wunderground v.1.15,2013-07-22 07:37:00,
2013-07-22 00:43:00,69.1,65.7,29.80,WSW,253,0.0,0.0,89,0.00,,,0.00,Wunderground v.1.15,2013-07-22 07:43:00,
2013-07-22 00:49:00,69.0,65.6,29.80,WSW,253,0.0,0.0,89,0.00,,,0.00,Wunderground v.1.15,2013-07-22 07:49:00,
2013-07-22 00:55:00,68.8,65.4,29.80,WSW,253,0.0,0.0,89,0.00,,,0.00,Wunderground v.1.15,2013-07-22 07:55:00,
2013-07-22 01:01:00,68.6,65.2,29.80,WSW,253,0.0,0.0,89,0.00,,,0.00,Wunderground v.1.15,2013-07-22 08:01:00,
2013-07-22 01:07:00,68.6,65.2,29.80,WSW,253,0.0,0.0,89,0.00,,,0.00,Wunderground v.1.15,2013-07-22 08:07:00,
2013-07-22 01:13:00,68.5,65.1,29.80,WSW,253,0.0,0.0,89,0.00,,,0.00,Wunderground v.1.15,2013-07-22 08:13:00,
2013-07-22 01:19:00,68.3,64.9,29.80,WSW,253,0.0,0.0,89,0.00,,,0.00,Wunderground v.1.15,2013-07-22 08:19:00,
2013-07-22 01:25:00,68.2,64.8,29.80,WSW,253,0.0,0.0,89,0.00,,,0.00,Wunderground v.1.15,2013-07-22 08:25:00,
2013-07-22 01:31:00,68.1,64.7,29.80,WSW,253,0.0,0.0,89,0.00,,,0.00,Wunderground v.1.15,2013-07-22 08:31:00,
2013-07-22 01:37:00,67.9,64.9,29.80,WSW,253,0.0,0.0,90,0.00,,,0.00,Wunderground v.1.15,2013-07-22 08:37:00,
2013-07-22 01:43:00,67.8,64.8,29.80,WSW,253,0.0,0.0,90,0.00,,,0.00,Wunderground v.1.15,2013-07-22 08:43:00,
2013-07-22 01:48:00,67.8,64.8,29.80,WSW,253,0.0,0.0,90,0.00,,,0.00,Wunderground v.1.15,2013-07-22 08:48:00,
2013-07-22 01:54:00,67.7,64.7,29.80,WSW,253,0.0,0.0,90,0.00,,,0.00,Wunderground v.1.15,2013-07-22 08:54:00,
2013-07-22 02:00:00,67.7,64.7,29.80,WSW,253,0.0,0.0,90,0.00,,,0.00,Wunderground v.1.15,2013-07-22 09:00:00,
2013-07-22 02:05:00,67.7,65.0,29.80,WSW,253,0.0,0.0,91,0.00,,,0.00,Wunderground v.1.15,2013-07-22 09:05:00,
2013-07-22 02:10:00,67.7,65.0,29.79,WSW,253,0.0,0.0,91,0.00,,,0.00,Wunderground v.1.15,2013-07-22 09:10:00,
2013-07-22 02:15:00,67.5,64.5,29.79,WSW,253,0.0,0.0,90,0.00,,,0.00,Wunderground v.1.15,2013-07-22 09:15:00,
2013-07-22 02:20:00,67.4,64.4,29.80,WSW,253,0.0,0.0,90,0.00,,,0.00,Wunderground v.1.15,2013-07-22 09:20:00,
2013-07-22 02:25:00,67.2,64.2,29.80,WSW,253,0.0,0.0,90,0.00,,,0.00,Wunderground v.1.15,2013-07-22 09:25:00,
2013-07-22 02:30:00,67.1,64.4,29.80,WSW,253,0.0,0.0,91,0.00,,,0.00,Wunderground v.1.15,2013-07-22 09:30:00,
2013-07-22 02:35:00,67.0,64.3,29.79,WSW,253,0.0,0.0,91,0.00,,,0.00,Wunderground v.1.15,2013-07-22 09:35:00,
2013-07-22 02:40:00,67.0,64.3,29.79,WSW,253,0.0,0.0,91,0.00,,,0.00,Wunderground v.1.15,2013-07-22 09:40:00,
2013-07-22 02:45:00,67.0,64.3,29.79,WSW,253,0.0,0.0,91,0.00,,,0.00,Wunderground v.1.15,2013-07-22 09:45:00,
2013-07-22 02:50:00,67.1,64.4,29.79,WSW,253,0.0,0.0,91,0.00,,,0.00,Wunderground v.1.15,2013-07-22 09:50:00,
2013-07-22 02:55:00,67.1,64.4,29.79,WSW,253,0.0,0.0,91,0.00,,,0.00,Wunderground v.1.15,2013-07-22 09:55:00,
2013-07-22 03:00:00,67.0,64.3,29.79,WSW,253,0.0,0.0,91,0.00,,,0.00,Wunderground v.1.15,2013-07-22 10:00:00,
2013-07-22 03:05:00,67.1,64.4,29.79,WSW,253,0.0,0.0,91,0.00,,,0.00,Wunderground v.1.15,2013-07-22 10:05:00,
2013-07-22 03:10:00,67.2,64.8,29.79,WSW,253,0.0,0.0,92,0.00,,,0.00,Wunderground v.1.15,2013-07-22 10:10:00,
2013-07-22 03:16:00,67.2,64.5,29.79,WSW,253,0.0,0.0,91,0.00,,,0.00,Wunderground v.1.15,2013-07-22 10:16:00,
2013-07-22 03:21:00,67.1,64.4,29.79,WSW,253,0.0,0.0,91,0.00,,,0.00,Wunderground v.1.15,2013-07-22 10:21:00,
2013-07-22 03:26:00,67.0,64.3,29.79,WSW,253,0.0,0.0,91,0.00,,,0.00,Wunderground v.1.15,2013-07-22 10:26:00,
2013-07-22 03:31:00,66.9,64.2,29.79,WSW,254,0.0,0.0,91,0.00,,,0.00,Wunderground v.1.15,2013-07-22 10:31:00,
2013-07-22 03:36:00,66.7,64.0,29.80,WSW,253,0.0,0.0,91,0.00,,,0.00,Wunderground v.1.15,2013-07-22 10:36:00,
2013-07-22 03:41:00,66.5,63.5,29.80,WSW,254,0.0,0.0,90,0.00,,,0.00,Wunderground v.1.15,2013-07-22 10:41:00,
2013-07-22 03:46:00,66.6,63.6,29.80,WSW,254,0.0,0.0,90,0.00,,,0.00,Wunderground v.1.15,2013-07-22 10:46:00,
2013-07-22 03:51:00,66.5,63.5,29.80,WSW,254,0.0,0.0,90,0.00,,,0.00,Wunderground v.1.15,2013-07-22 10:51:00,
2013-07-22 03:56:00,66.3,63.0,29.81,WSW,253,0.0,0.0,89,0.00,,,0.00,Wunderground v.1.15,2013-07-22 10:56:00,
2013-07-22 04:01:00,66.2,62.9,29.80,WSW,254,0.0,0.0,89,0.00,,,0.00,Wunderground v.1.15,2013-07-22 11:01:00,
2013-07-22 04:06:00,66.2,62.9,29.80,WSW,254,0.0,0.0,89,0.00,,,0.00,Wunderground v.1.15,2013-07-22 11:06:00,
2013-07-22 04:11:00,66.1,62.8,29.81,WSW,253,0.0,0.0,89,0.00,,,0.00,Wunderground v.1.15,2013-07-22 11:11:00,
2013-07-22 04:16:00,65.9,62.2,29.81,WSW,253,0.0,0.0,88,0.00,,,0.00,Wunderground v.1.15,2013-07-22 11:16:00,
2013-07-22 04:21:00,65.8,62.1,29.81,WSW,254,0.0,0.0,88,0.00,,,0.00,Wunderground v.1.15,2013-07-22 11:21:00,
2013-07-22 04:26:00,65.7,62.0,29.81,WSW,254,0.0,0.0,88,0.00,,,0.00,Wunderground v.1.15,2013-07-22 11:26:00,
2013-07-22 04:31:00,65.6,61.6,29.81,WSW,253,0.0,0.0,87,0.00,,,0.00,Wunderground v.1.15,2013-07-22 11:31:00,
2013-07-22 04:36:00,65.6,61.9,29.81,WSW,254,0.0,0.0,88,0.00,,,0.00,Wunderground v.1.15,2013-07-22 11:36:00,
2013-07-22 04:41:00,65.7,62.0,29.81,WSW,254,0.0,0.0,88,0.00,,,0.00,Wunderground v.1.15,2013-07-22 11:41:00,
2013-07-22 04:46:00,65.8,62.5,29.81,WSW,254,0.0,0.0,89,0.00,,,0.00,Wunderground v.1.15,2013-07-22 11:46:00,
2013-07-22 04:51:00,66.0,62.7,29.81,WSW,253,0.0,0.0,89,0.00,,,0.00,Wunderground v.1.15,2013-07-22 11:51:00,
2013-07-22 04:56:00,66.1,62.8,29.81,WSW,254,0.0,0.0,89,0.00,,,0.00,Wunderground v.1.15,2013-07-22 11:56:00,
2013-07-22 05:01:00,66.0,62.3,29.81,WSW,253,0.0,0.0,88,0.00,,,0.00,Wunderground v.1.15,2013-07-22 12:01:00,
2013-07-22 05:06:00,66.1,62.4,29.81,WSW,253,0.0,1.0,88,0.00,,,0.00,Wunderground v.1.15,2013-07-22 12:06:00,
2013-07-22 05:11:00,66.1,62.4,29.81,WSW,254,0.0,0.0,88,0.00,,,0.00,Wunderground v.1.15,2013-07-22 12:11:00,
2013-07-22 05:16:00,66.2,62.5,29.82,WSW,254,0.0,0.0,88,0.00,,,0.00,Wunderground v.1.15,2013-07-22 12:16:00,
2013-07-22 05:21:00,66.2,62.9,29.82,WSW,253,0.0,0.0,89,0.00,,,0.00,Wunderground v.1.15,2013-07-22 12:21:00,
2013-07-22 05:26:00,66.3,63.0,29.82,West,265,0.0,0.0,89,0.00,,,0.00,Wunderground v.1.15,2013-07-22 12:26:00,
2013-07-22 05:31:00,66.3,63.0,29.82,West,265,0.0,0.0,89,0.00,,,0.00,Wunderground v.1.15,2013-07-22 12:31:00,
2013-07-22 05:36:00,66.3,63.0,29.83,West,265,0.0,0.0,89,0.00,,,0.00,Wunderground v.1.15,2013-07-22 12:36:00,
2013-07-22 05:41:00,66.3,63.3,29.83,West,265,0.0,0.0,90,0.00,,,0.00,Wunderground v.1.15,2013-07-22 12:41:00,
2013-07-22 05:46:00,66.2,63.2,29.83,West,265,0.0,0.0,90,0.00,,,0.00,Wunderground v.1.15,2013-07-22 12:46:00,
2013-07-22 05:52:00,66.2,63.2,29.84,West,265,0.0,0.0,90,0.00,,,0.00,Wunderground v.1.15,2013-07-22 12:52:00,
2013-07-22 05:57:00,66.2,63.2,29.84,West,265,0.0,0.0,90,0.00,,,0.00,Wunderground v.1.15,2013-07-22 12:57:00,
2013-07-22 06:02:00,66.2,63.5,29.84,West,265,0.0,0.0,91,0.00,,,0.00,Wunderground v.1.15,2013-07-22 13:02:00,
2013-07-22 06:07:00,66.2,63.8,29.84,West,265,0.0,0.0,92,0.00,,,0.00,Wunderground v.1.15,2013-07-22 13:07:00,
2013-07-22 06:12:00,66.3,63.6,29.84,West,265,0.0,0.0,91,0.00,,,0.00,Wunderground v.1.15,2013-07-22 13:12:00,
2013-07-22 06:17:00,66.3,63.6,29.84,West,265,0.0,0.0,91,0.00,,,0.00,Wunderground v.1.15,2013-07-22 13:17:00,
2013-07-22 06:22:00,66.3,63.6,29.84,West,265,0.0,0.0,91,0.00,,,0.00,Wunderground v.1.15,2013-07-22 13:22:00,
2013-07-22 06:27:00,66.4,64.0,29.84,West,265,0.0,0.0,92,0.00,,,0.00,Wunderground v.1.15,2013-07-22 13:27:00,
2013-07-22 06:32:00,66.5,64.1,29.84,West,265,0.0,0.0,92,0.00,,,0.00,Wunderground v.1.15,2013-07-22 13:32:00,
2013-07-22 06:37:00,66.6,64.2,29.85,West,265,0.0,0.0,92,0.00,,,0.00,Wunderground v.1.15,2013-07-22 13:37:00,
2013-07-22 06:42:00,66.7,64.3,29.85,West,265,0.0,0.0,92,0.00,,,0.00,Wunderground v.1.15,2013-07-22 13:42:00,
2013-07-22 06:47:00,67.0,64.6,29.85,West,265,0.0,0.0,92,0.00,,,0.00,Wunderground v.1.15,2013-07-22 13:47:00,
2013-07-22 06:52:00,67.2,64.8,29.85,West,265,0.0,0.0,92,0.00,,,0.00,Wunderground v.1.15,2013-07-22 13:52:00,
2013-07-22 06:57:00,67.4,65.0,29.85,West,265,0.0,0.0,92,0.00,,,0.00,Wunderground v.1.15,2013-07-22 13:57:00,
2013-07-22 07:02:00,67.6,65.2,29.85,West,265,0.0,0.0,92,0.00,,,0.00,Wunderground v.1.15,2013-07-22 14:02:00,
2013-07-22 07:07:00,67.8,65.4,29.85,West,265,0.0,0.0,92,0.00,,,0.00,Wunderground v.1.15,2013-07-22 14:07:00,
2013-07-22 07:12:00,68.2,65.8,29.85,West,265,0.0,0.0,92,0.00,,,0.00,Wunderground v.1.15,2013-07-22 14:12:00,
2013-07-22 07:17:00,68.6,66.2,29.85,West,265,0.0,0.0,92,0.00,,,0.00,Wunderground v.1.15,2013-07-22 14:17:00,
2013-07-22 07:22:00,69.2,66.5,29.85,West,265,0.0,0.0,91,0.00,,,0.00,Wunderground v.1.15,2013-07-22 14:22:00,
2013-07-22 07:27:00,69.8,66.7,29.85,West,265,0.0,0.0,90,0.00,,,0.00,Wunderground v.1.15,2013-07-22 14:27:00,
2013-07-22 07:33:00,70.2,66.8,29.86,West,265,0.0,0.0,89,0.00,,,0.00,Wunderground v.1.15,2013-07-22 14:33:00,
2013-07-22 07:38:00,70.4,66.0,29.86,West,265,0.0,0.0,86,0.00,,,0.00,Wunderground v.1.15,2013-07-22 14:38:00,
2013-07-22 07:43:00,71.0,65.9,29.85,West,265,0.0,0.0,84,0.00,,,0.00,Wunderground v.1.15,2013-07-22 14:43:00,
2013-07-22 07:48:00,71.6,66.2,29.85,West,265,0.0,0.0,83,0.00,,,0.00,Wunderground v.1.15,2013-07-22 14:48:00,
2013-07-22 07:53:00,72.5,66.7,29.85,West,265,0.0,0.0,82,0.00,,,0.00,Wunderground v.1.15,2013-07-22 14:53:00,
2013-07-22 07:58:00,73.2,66.7,29.85,West,265,0.0,0.0,80,0.00,,,0.00,Wunderground v.1.15,2013-07-22 14:58:00,
2013-07-22 08:03:00,73.8,66.9,29.84,West,265,0.0,0.0,79,0.00,,,0.00,Wunderground v.1.15,2013-07-22 15:03:00,
2013-07-22 08:08:00,74.2,65.8,29.84,WSW,247,0.0,0.0,75,0.00,,,0.00,Wunderground v.1.15,2013-07-22 15:08:00,
2013-07-22 08:13:00,74.9,65.7,29.84,WSW,247,0.0,0.0,73,0.00,,,0.00,Wunderground v.1.15,2013-07-22 15:13:00,
2013-07-22 08:18:00,75.5,65.4,29.84,SW,233,0.0,2.0,71,0.00,,,0.00,Wunderground v.1.15,2013-07-22 15:18:00,
2013-07-22 08:23:00,76.1,65.6,29.84,WSW,242,0.0,2.0,70,0.00,,,0.00,Wunderground v.1.15,2013-07-22 15:23:00,
2013-07-22 08:28:00,76.5,65.1,29.83,WSW,245,0.0,4.0,68,0.00,,,0.00,Wunderground v.1.15,2013-07-22 15:28:00,
2013-07-22 08:33:00,76.8,65.4,29.83,West,275,0.0,1.0,68,0.00,,,0.00,Wunderground v.1.15,2013-07-22 15:33:00,
2013-07-22 08:38:00,77.1,66.1,29.83,SW,215,0.0,3.0,69,0.00,,,0.00,Wunderground v.1.15,2013-07-22 15:38:00,
2013-07-22 08:43:00,77.4,66.8,29.83,SSW,196,0.0,1.0,70,0.00,,,0.00,Wunderground v.1.15,2013-07-22 15:43:00,
2013-07-22 08:48:00,77.7,66.7,29.83,SW,236,0.0,3.0,69,0.00,,,0.00,Wunderground v.1.15,2013-07-22 15:48:00,
2013-07-22 08:53:00,78.1,67.1,29.83,SSW,209,0.0,0.0,69,0.00,,,0.00,Wunderground v.1.15,2013-07-22 15:53:00,
2013-07-22 08:58:00,78.7,67.7,29.83,WNW,283,0.0,4.0,69,0.00,,,0.00,Wunderground v.1.15,2013-07-22 15:58:00,
2013-07-22 09:03:00,79.3,67.8,29.83,WNW,284,0.0,3.0,68,0.00,,,0.00,Wunderground v.1.15,2013-07-22 16:03:00,
2013-07-22 09:08:00,79.8,68.3,29.83,WNW,283,4.0,4.0,68,0.00,,,0.00,Wunderground v.1.15,2013-07-22 16:08:00,
2013-07-22 09:13:00,80.1,68.2,29.83,WNW,288,4.0,4.0,67,0.00,,,0.00,Wunderground v.1.15,2013-07-22 16:13:00,
2013-07-22 09:18:00,80.2,67.8,29.83,WNW,287,0.0,4.0,66,0.00,,,0.00,Wunderground v.1.15,2013-07-22 16:18:00,
2013-07-22 09:23:00,80.5,67.6,29.82,WNW,292,0.0,2.0,65,0.00,,,0.00,Wunderground v.1.15,2013-07-22 16:23:00,
2013-07-22 09:28:00,80.9,67.1,29.83,West,262,0.0,3.0,63,0.00,,,0.00,Wunderground v.1.15,2013-07-22 16:28:00,
2013-07-22 09:33:00,81.1,66.8,29.83,West,263,0.0,1.0,62,0.00,,,0.00,Wunderground v.1.15,2013-07-22 16:33:00,
2013-07-22 09:38:00,81.4,67.1,29.83,SW,223,0.0,4.0,62,0.00,,,0.00,Wunderground v.1.15,2013-07-22 16:38:00,
2013-07-22 09:43:00,81.8,68.0,29.83,WNW,302,2.0,3.0,63,0.00,,,0.00,Wunderground v.1.15,2013-07-22 16:43:00,
2013-07-22 09:48:00,81.9,67.6,29.83,West,265,0.0,5.0,62,0.00,,,0.00,Wunderground v.1.15,2013-07-22 16:48:00,
2013-07-22 09:53:00,82.1,68.7,29.83,NW,309,0.0,5.0,64,0.00,,,0.00,Wunderground v.1.15,2013-07-22 16:53:00,
2013-07-22 09:58:00,82.3,68.0,29.83,WNW,284,0.0,5.0,62,0.00,,,0.00,Wunderground v.1.15,2013-07-22 16:58:00,
2013-07-22 10:03:00,82.3,68.0,29.83,WNW,286,0.0,4.0,62,0.00,,,0.00,Wunderground v.1.15,2013-07-22 17:03:00,
2013-07-22 10:08:00,82.3,68.4,29.83,WNW,293,1.0,5.0,63,0.00,,,0.00,Wunderground v.1.15,2013-07-22 17:08:00,
2013-07-22 10:13:00,82.3,68.0,29.83,West,278,2.0,5.0,62,0.00,,,0.00,Wunderground v.1.15,2013-07-22 17:13:00,
2013-07-22 10:18:00,81.8,67.5,29.84,West,263,1.0,5.0,62,0.00,,,0.00,Wunderground v.1.15,2013-07-22 17:18:00,
2013-07-22 10:23:00,81.9,68.1,29.84,West,270,0.0,5.0,63,0.00,,,0.00,Wunderground v.1.15,2013-07-22 17:23:00,
2013-07-22 10:28:00,82.5,69.1,29.83,NW,306,0.0,5.0,64,0.00,,,0.00,Wunderground v.1.15,2013-07-22 17:28:00,
2013-07-22 10:33:00,83.1,68.7,29.83,WNW,295,0.0,5.0,62,0.00,,,0.00,Wunderground v.1.15,2013-07-22 17:33:00,
2013-07-22 10:38:00,83.0,68.2,29.84,West,271,2.0,6.0,61,0.00,,,0.00,Wunderground v.1.15,2013-07-22 17:38:00,
2013-07-22 10:44:00,82.6,67.8,29.83,West,262,0.0,4.0,61,0.00,,,0.00,Wunderground v.1.15,2013-07-22 17:44:00,
2013-07-22 10:49:00,82.4,67.1,29.84,WSW,256,1.0,6.0,60,0.00,,,0.00,Wunderground v.1.15,2013-07-22 17:49:00,
2013-07-22 10:54:00,82.6,67.3,29.84,WSW,256,0.0,0.0,60,0.00,,,0.00,Wunderground v.1.15,2013-07-22 17:54:00,
2013-07-22 10:59:00,82.8,67.0,29.84,West,265,0.0,3.0,59,0.00,,,0.00,Wunderground v.1.15,2013-07-22 17:59:00,
2013-07-22 11:05:00,83.2,66.9,29.84,WSW,248,1.0,5.0,58,0.00,,,0.00,Wunderground v.1.15,2013-07-22 18:05:00,
2013-07-22 11:10:00,83.8,67.4,29.84,WSW,244,0.0,1.0,58,0.00,,,0.00,Wunderground v.1.15,2013-07-22 18:10:00,
2013-07-22 11:15:00,84.2,66.8,29.84,SW,214,0.0,1.0,56,0.00,,,0.00,Wunderground v.1.15,2013-07-22 18:15:00,
2013-07-22 11:20:00,84.5,67.1,29.84,ESE,116,0.0,0.0,56,0.00,,,0.00,Wunderground v.1.15,2013-07-22 18:20:00,
2013-07-22 11:25:00,84.7,67.3,29.83,South,179,0.0,1.0,56,0.00,,,0.00,Wunderground v.1.15,2013-07-22 18:25:00,
2013-07-22 11:30:00,84.9,68.0,29.83,WNW,294,0.0,0.0,57,0.00,,,0.00,Wunderground v.1.15,2013-07-22 18:30:00,
2013-07-22 11:35:00,84.6,67.7,29.83,WNW,294,0.0,2.0,57,0.00,,,0.00,Wunderground v.1.15,2013-07-22 18:35:00,
2013-07-22 11:41:00,84.2,67.3,29.83,West,273,0.0,1.0,57,0.00,,,0.00,Wunderground v.1.15,2013-07-22 18:41:00,
2013-07-22 11:46:00,83.9,67.0,29.83,West,271,2.0,5.0,57,0.00,,,0.00,Wunderground v.1.15,2013-07-22 18:46:00,
2013-07-22 11:51:00,83.6,67.8,29.84,WNW,286,0.0,1.0,59,0.00,,,0.00,Wunderground v.1.15,2013-07-22 18:51:00,
2013-07-22 11:56:00,83.5,67.7,29.84,West,273,0.0,3.0,59,0.00,,,0.00,Wunderground v.1.15,2013-07-22 18:56:00,
2013-07-22 12:01:00,83.6,66.8,29.84,West,279,0.0,0.0,57,0.00,,,0.00,Wunderground v.1.15,2013-07-22 19:01:00,
2013-07-22 12:07:00,83.5,66.7,29.84,WNW,287,0.0,5.0,57,0.00,,,0.00,Wunderground v.1.15,2013-07-22 19:07:00,
2013-07-22 12:12:00,83.2,66.9,29.84,NNW,333,0.0,0.0,58,0.00,,,0.00,Wunderground v.1.15,2013-07-22 19:12:00,
2013-07-22 12:17:00,83.0,66.2,29.83,WNW,293,0.0,3.0,57,0.00,,,0.00,Wunderground v.1.15,2013-07-22 19:17:00,
2013-07-22 12:22:00,82.8,67.0,29.83,WNW,288,0.0,0.0,59,0.00,,,0.00,Wunderground v.1.15,2013-07-22 19:22:00,
2013-07-22 12:27:00,82.6,66.8,29.83,WNW,286,0.0,2.0,59,0.00,,,0.00,Wunderground v.1.15,2013-07-22 19:27:00,
2013-07-22 12:32:00,82.4,66.6,29.84,WNW,287,0.0,0.0,59,0.00,,,0.00,Wunderground v.1.15,2013-07-22 19:32:00,
2013-07-22 12:37:00,82.4,66.6,29.83,WNW,286,0.0,0.0,59,0.00,,,0.00,Wunderground v.1.15,2013-07-22 19:37:00,
2013-07-22 12:43:00,82.4,67.1,29.83,West,280,0.0,1.0,60,0.00,,,0.00,Wunderground v.1.15,2013-07-22 19:43:00,
2013-07-22 12:48:00,82.6,67.3,29.84,West,281,0.0,1.0,60,0.00,,,0.00,Wunderground v.1.15,2013-07-22 19:48:00,
2013-07-22 12:53:00,82.9,67.1,29.84,West,280,0.0,0.0,59,0.00,,,0.00,Wunderground v.1.15,2013-07-22 19:53:00,
2013-07-22 12:58:00,83.1,67.3,29.83,WNW,302,0.0,10.0,59,0.00,,,0.00,Wunderground v.1.15,2013-07-22 19:58:00,
2013-07-22 13:04:00,83.3,67.5,29.83,West,272,0.0,2.0,59,0.00,,,0.00,Wunderground v.1.15,2013-07-22 20:04:00,
2013-07-22 13:09:00,83.8,67.9,29.82,WNW,284,0.0,2.0,59,0.00,,,0.00,Wunderground v.1.15,2013-07-22 20:09:00,
2013-07-22 13:14:00,83.9,67.5,29.83,West,281,0.0,4.0,58,0.00,,,0.00,Wunderground v.1.15,2013-07-22 20:14:00,
2013-07-22 13:16:00,84.0,67.6,29.82,WNW,284,0.0,4.0,58,0.00,,,0.00,Wunderground v.1.15,2013-07-22 20:16:00,
2013-07-22 13:17:00,84.0,67.6,29.82,WNW,284,0.0,4.0,58,0.00,,,0.00,Wunderground v.1.15,2013-07-22 20:17:00,
2013-07-22 13:22:00,83.9,68.0,29.82,WNW,298,0.0,3.0,59,0.00,,,0.00,Wunderground v.1.15,2013-07-22 20:22:00,
2013-07-22 13:27:00,83.8,67.4,29.82,West,277,0.0,5.0,58,0.00,,,0.00,Wunderground v.1.15,2013-07-22 20:27:00,
2013-07-22 13:32:00,83.8,67.9,29.81,West,277,0.0,1.0,59,0.00,,,0.00,Wunderground v.1.15,2013-07-22 20:32:00,
2013-07-22 13:37:00,83.9,67.5,29.82,WSW,254,0.0,6.0,58,0.00,,,0.00,Wunderground v.1.15,2013-07-22 20:37:00,
2013-07-22 13:42:00,83.9,68.0,29.82,WNW,302,0.0,1.0,59,0.00,,,0.00,Wunderground v.1.15,2013-07-22 20:42:00,
2013-07-22 13:43:00,83.9,68.0,29.82,WNW,303,0.0,1.0,59,0.00,,,0.00,Wunderground v.1.15,2013-07-22 20:43:00,
2013-07-22 13:48:00,84.0,68.1,29.82,West,270,0.0,7.0,59,0.00,,,0.00,Wunderground v.1.15,2013-07-22 20:48:00,
2013-07-22 13:53:00,84.9,68.5,29.81,West,265,2.0,6.0,58,0.00,,,0.00,Wunderground v.1.15,2013-07-22 20:53:00,
2013-07-22 13:58:00,86.1,68.0,29.82,WNW,298,0.0,6.0,55,0.00,,,0.00,Wunderground v.1.15,2013-07-22 20:58:00,
2013-07-22 14:03:00,86.2,68.1,29.82,WNW,295,0.0,1.0,55,0.00,,,0.00,Wunderground v.1.15,2013-07-22 21:03:00,
2013-07-22 14:08:00,86.2,67.6,29.82,WNW,287,0.0,3.0,54,0.00,,,0.00,Wunderground v.1.15,2013-07-22 21:08:00,
2013-07-22 14:13:00,86.4,67.8,29.82,West,268,0.0,4.0,54,0.00,,,0.00,Wunderground v.1.15,2013-07-22 21:13:00,
2013-07-22 14:18:00,86.7,67.5,29.81,West,276,0.0,4.0,53,0.00,,,0.00,Wunderground v.1.15,2013-07-22 21:18:00,
2013-07-22 14:23:00,86.6,66.9,29.81,West,277,0.0,3.0,52,0.00,,,0.00,Wunderground v.1.15,2013-07-22 21:23:00,
2013-07-22 14:28:00,86.2,67.1,29.81,WNW,290,0.0,7.0,53,0.00,,,0.00,Wunderground v.1.15,2013-07-22 21:28:00,
2013-07-22 14:33:00,85.8,66.7,29.81,WNW,282,0.0,5.0,53,0.00,,,0.00,Wunderground v.1.15,2013-07-22 21:33:00,
2013-07-22 14:38:00,85.3,66.2,29.81,WNW,283,0.0,5.0,53,0.00,,,0.00,Wunderground v.1.15,2013-07-22 21:38:00,
2013-07-22 14:43:00,84.9,66.4,29.81,WNW,288,0.0,4.0,54,0.00,,,0.00,Wunderground v.1.15,2013-07-22 21:43:00,
2013-07-22 14:48:00,84.7,65.7,29.81,WNW,300,0.0,9.0,53,0.00,,,0.00,Wunderground v.1.15,2013-07-22 21:48:00,
2013-07-22 14:53:00,84.4,65.4,29.82,NW,304,0.0,5.0,53,0.00,,,0.00,Wunderground v.1.15,2013-07-22 21:53:00,
2013-07-22 14:58:00,84.3,65.8,29.82,WNW,286,0.0,5.0,54,0.00,,,0.00,Wunderground v.1.15,2013-07-22 21:58:00,
2013-07-22 15:03:00,84.2,66.3,29.82,WNW,296,0.0,4.0,55,0.00,,,0.00,Wunderground v.1.15,2013-07-22 22:03:00,
2013-07-22 15:08:00,84.0,67.1,29.82,West,280,4.0,4.0,57,0.00,,,0.00,Wunderground v.1.15,2013-07-22 22:08:00,
2013-07-22 15:13:00,83.4,67.1,29.82,West,260,1.0,5.0,58,0.00,,,0.00,Wunderground v.1.15,2013-07-22 22:13:00,
2013-07-22 15:18:00,82.7,67.9,29.81,WSW,244,0.0,5.0,61,0.00,,,0.01,Wunderground v.1.15,2013-07-22 22:18:00,
2013-07-22 15:23:00,82.1,67.8,29.82,WSW,255,0.0,3.0,62,0.00,,,0.01,Wunderground v.1.15,2013-07-22 22:23:00,
2013-07-22 15:28:00,81.9,66.2,29.82,WSW,242,1.0,3.0,59,0.00,,,0.01,Wunderground v.1.15,2013-07-22 22:28:00,
2013-07-22 15:33:00,82.1,66.8,29.82,SSW,209,0.0,11.0,60,0.00,,,0.01,Wunderground v.1.15,2013-07-22 22:33:00,
2013-07-22 15:38:00,82.3,66.0,29.81,SW,233,0.0,11.0,58,0.00,,,0.01,Wunderground v.1.15,2013-07-22 22:38:00,
2013-07-22 15:43:00,82.8,66.5,29.81,SSW,207,0.0,5.0,58,0.00,,,0.01,Wunderground v.1.15,2013-07-22 22:43:00,
2013-07-22 15:48:00,83.1,65.8,29.81,WSW,254,0.0,5.0,56,0.00,,,0.01,Wunderground v.1.15,2013-07-22 22:48:00,
2013-07-22 15:53:00,83.2,65.4,29.81,West,266,0.0,5.0,55,0.00,,,0.01,Wunderground v.1.15,2013-07-22 22:53:00,
2013-07-22 15:58:00,83.0,65.7,29.80,SW,229,0.0,5.0,56,0.00,,,0.01,Wunderground v.1.15,2013-07-22 22:58:00,
2013-07-22 16:03:00,83.0,65.2,29.81,SSW,213,4.0,10.0,55,0.00,,,0.01,Wunderground v.1.15,2013-07-22 23:03:00,
2013-07-22 16:08:00,82.8,65.0,29.81,SW,232,0.0,10.0,55,0.00,,,0.01,Wunderground v.1.15,2013-07-22 23:08:00,
2013-07-22 16:13:00,82.9,65.1,29.81,West,261,1.0,9.0,55,0.00,,,0.01,Wunderground v.1.15,2013-07-22 23:13:00,
2013-07-22 16:18:00,82.7,64.4,29.81,SSE,157,3.0,9.0,54,0.00,,,0.01,Wunderground v.1.15,2013-07-22 23:18:00,
2013-07-22 16:23:00,82.5,64.7,29.81,SSW,209,0.0,5.0,55,0.00,,,0.01,Wunderground v.1.15,2013-07-22 23:23:00,
2013-07-22 16:28:00,82.5,64.7,29.81,SW,229,4.0,8.0,55,0.00,,,0.01,Wunderground v.1.15,2013-07-22 23:28:00,
2013-07-22 16:34:00,82.7,64.4,29.81,SW,219,0.0,7.0,54,0.00,,,0.01,Wunderground v.1.15,2013-07-22 23:34:00,
2013-07-22 16:40:00,82.7,64.9,29.81,SW,222,0.0,2.0,55,0.00,,,0.01,Wunderground v.1.15,2013-07-22 23:40:00,
2013-07-22 16:45:00,83.0,65.2,29.81,SSW,205,0.0,5.0,55,0.00,,,0.01,Wunderground v.1.15,2013-07-22 23:45:00,
2013-07-22 16:50:00,83.5,65.1,29.80,SW,216,0.0,1.0,54,0.00,,,0.01,Wunderground v.1.15,2013-07-22 23:50:00,
2013-07-22 16:55:00,83.4,65.0,29.81,South,169,2.0,13.0,54,0.00,,,0.01,Wunderground v.1.15,2013-07-22 23:55:00,
2013-07-22 17:00:00,83.0,64.6,29.81,SW,232,0.0,3.0,54,0.00,,,0.01,Wunderground v.1.15,2013-07-23 00:00:00,
2013-07-22 17:05:00,82.7,64.9,29.81,WSW,247,9.0,11.0,55,0.00,,,0.01,Wunderground v.1.15,2013-07-23 00:05:00,
2013-07-22 17:10:00,82.1,64.3,29.81,WSW,242,3.0,4.0,55,0.00,,,0.01,Wunderground v.1.15,2013-07-23 00:10:00,
2013-07-22 17:15:00,81.8,64.6,29.81,SSW,196,2.0,10.0,56,0.00,,,0.01,Wunderground v.1.15,2013-07-23 00:15:00,
2013-07-22 17:20:00,81.9,64.1,29.81,SW,227,2.0,5.0,55,0.00,,,0.01,Wunderground v.1.15,2013-07-23 00:20:00,
2013-07-22 17:25:00,81.6,63.9,29.80,SSW,203,3.0,7.0,55,0.00,,,0.01,Wunderground v.1.15,2013-07-23 00:25:00,
2013-07-22 17:30:00,81.5,64.3,29.80,WSW,251,4.0,4.0,56,0.00,,,0.01,Wunderground v.1.15,2013-07-23 00:30:00,
2013-07-22 17:35:00,81.5,64.3,29.80,SSW,208,3.0,10.0,56,0.00,,,0.01,Wunderground v.1.15,2013-07-23 00:35:00,
2013-07-22 17:40:00,81.7,64.5,29.80,WSW,254,0.0,2.0,56,0.00,,,0.01,Wunderground v.1.15,2013-07-23 00:40:00,
2013-07-22 17:45:00,81.7,64.0,29.80,South,178,0.0,6.0,55,0.00,,,0.01,Wunderground v.1.15,2013-07-23 00:45:00,
2013-07-22 17:50:00,81.5,64.3,29.80,SSW,213,0.0,2.0,56,0.00,,,0.01,Wunderground v.1.15,2013-07-23 00:50:00,
2013-07-22 17:55:00,81.4,64.2,29.80,WSW,254,5.0,7.0,56,0.00,,,0.01,Wunderground v.1.15,2013-07-23 00:55:00,
2013-07-22 18:00:00,81.2,64.0,29.80,West,276,0.0,1.0,56,0.00,,,0.01,Wunderground v.1.15,2013-07-23 01:00:00,
2013-07-22 18:05:00,81.0,63.8,29.80,South,182,0.0,7.0,56,0.00,,,0.01,Wunderground v.1.15,2013-07-23 01:05:00,
2013-07-22 18:10:00,80.6,64.0,29.80,SSW,204,0.0,4.0,57,0.00,,,0.01,Wunderground v.1.15,2013-07-23 01:10:00,
2013-07-22 18:15:00,80.5,63.9,29.80,SW,233,1.0,5.0,57,0.00,,,0.01,Wunderground v.1.15,2013-07-23 01:15:00,
2013-07-22 18:20:00,80.2,63.6,29.80,South,186,2.0,5.0,57,0.00,,,0.01,Wunderground v.1.15,2013-07-23 01:20:00,
2013-07-22 18:25:00,80.0,63.4,29.81,WSW,242,3.0,5.0,57,0.00,,,0.01,Wunderground v.1.15,2013-07-23 01:25:00,
2013-07-22 18:30:00,79.9,63.3,29.81,SSW,206,2.0,2.0,57,0.00,,,0.01,Wunderground v.1.15,2013-07-23 01:30:00,
2013-07-22 18:35:00,79.9,63.3,29.80,WSW,250,6.0,6.0,57,0.00,,,0.01,Wunderground v.1.15,2013-07-23 01:35:00,
2013-07-22 18:40:00,80.1,63.5,29.80,SW,230,0.0,4.0,57,0.00,,,0.01,Wunderground v.1.15,2013-07-23 01:40:00,
2013-07-22 18:45:00,80.2,63.6,29.80,West,264,0.0,7.0,57,0.00,,,0.01,Wunderground v.1.15,2013-07-23 01:45:00,
2013-07-22 18:50:00,80.5,63.9,29.80,West,265,0.0,9.0,57,0.00,,,0.01,Wunderground v.1.15,2013-07-23 01:50:00,
2013-07-22 18:55:00,80.3,63.2,29.81,West,265,6.0,11.0,56,0.00,,,0.01,Wunderground v.1.15,2013-07-23 01:55:00,
2013-07-22 19:00:00,80.0,63.4,29.81,WSW,255,0.0,3.0,57,0.00,,,0.01,Wunderground v.1.15,2013-07-23 02:00:00,
2013-07-22 19:05:00,79.8,63.7,29.81,WSW,246,4.0,6.0,58,0.00,,,0.01,Wunderground v.1.15,2013-07-23 02:05:00,
2013-07-22 19:10:00,79.6,63.5,29.81,WSW,256,2.0,4.0,58,0.00,,,0.01,Wunderground v.1.15,2013-07-23 02:10:00,
2013-07-22 19:15:00,79.2,63.6,29.82,WSW,256,0.0,11.0,59,0.00,,,0.01,Wunderground v.1.15,2013-07-23 02:15:00,
2013-07-22 19:20:00,78.7,63.2,29.82,West,267,1.0,7.0,59,0.00,,,0.01,Wunderground v.1.15,2013-07-23 02:20:00,
2013-07-22 19:26:00,78.2,63.2,29.83,WSW,257,0.0,11.0,60,0.00,,,0.01,Wunderground v.1.15,2013-07-23 02:26:00,
2013-07-22 19:31:00,77.8,62.8,29.82,SW,222,0.0,6.0,60,0.00,,,0.01,Wunderground v.1.15,2013-07-23 02:31:00,
2013-07-22 19:36:00,77.1,62.1,29.81,West,271,0.0,7.0,60,0.00,,,0.01,Wunderground v.1.15,2013-07-23 02:36:00,
2013-07-22 19:41:00,76.4,62.4,29.81,WSW,242,0.0,10.0,62,0.00,,,0.01,Wunderground v.1.15,2013-07-23 02:41:00,
2013-07-22 19:46:00,75.9,62.4,29.82,WSW,247,2.0,10.0,63,0.00,,,0.01,Wunderground v.1.15,2013-07-23 02:46:00,
2013-07-22 19:51:00,76.0,62.5,29.82,West,259,4.0,5.0,63,0.00,,,0.01,Wunderground v.1.15,2013-07-23 02:51:00,
2013-07-22 19:56:00,76.1,62.1,29.82,WSW,249,0.0,11.0,62,0.00,,,0.01,Wunderground v.1.15,2013-07-23 02:56:00,
2013-07-22 20:01:00,75.7,62.2,29.82,WSW,240,0.0,3.0,63,0.00,,,0.01,Wunderground v.1.15,2013-07-23 03:01:00,
2013-07-22 20:06:00,75.3,61.8,29.82,WSW,245,0.0,3.0,63,0.00,,,0.01,Wunderground v.1.15,2013-07-23 03:06:00,
2013-07-22 20:11:00,74.9,61.9,29.83,WSW,249,0.0,0.0,64,0.00,,,0.01,Wunderground v.1.15,2013-07-23 03:11:00,
2013-07-22 20:16:00,74.7,61.7,29.83,WSW,241,0.0,0.0,64,0.00,,,0.01,Wunderground v.1.15,2013-07-23 03:16:00,
2013-07-22 20:21:00,74.6,62.1,29.83,WSW,242,0.0,5.0,65,0.00,,,0.01,Wunderground v.1.15,2013-07-23 03:21:00,
2013-07-22 20:26:00,74.7,62.1,29.83,West,265,3.0,5.0,65,0.00,,,0.01,Wunderground v.1.15,2013-07-23 03:26:00,
2013-07-22 20:31:00,74.7,62.1,29.83,WSW,250,0.0,1.0,65,0.00,,,0.01,Wunderground v.1.15,2013-07-23 03:31:00,
2013-07-22 20:37:00,74.7,62.1,29.82,West,273,5.0,7.0,65,0.00,,,0.01,Wunderground v.1.15,2013-07-23 03:37:00,
2013-07-22 20:42:00,74.6,62.1,29.83,West,269,0.0,6.0,65,0.00,,,0.01,Wunderground v.1.15,2013-07-23 03:42:00,
2013-07-22 20:47:00,74.5,62.0,29.83,West,271,0.0,6.0,65,0.00,,,0.01,Wunderground v.1.15,2013-07-23 03:47:00,
2013-07-22 20:52:00,74.4,62.3,29.84,WSW,253,0.0,4.0,66,0.00,,,0.01,Wunderground v.1.15,2013-07-23 03:52:00,
2013-07-22 20:57:00,74.3,62.2,29.84,WSW,249,2.0,6.0,66,0.00,,,0.01,Wunderground v.1.15,2013-07-23 03:57:00,
2013-07-22 21:01:00,74.1,62.0,29.84,WSW,252,0.0,4.0,66,0.00,,,0.01,Wunderground v.1.15,2013-07-23 04:01:00,
2013-07-22 21:06:00,73.9,62.2,29.84,WNW,290,0.0,6.0,67,0.00,,,0.01,Wunderground v.1.15,2013-07-23 04:06:00,
2013-07-22 21:11:00,73.7,61.6,29.84,WSW,246,0.0,6.0,66,0.00,,,0.01,Wunderground v.1.15,2013-07-23 04:11:00,
2013-07-22 21:16:00,73.5,61.9,29.84,West,279,0.0,9.0,67,0.00,,,0.01,Wunderground v.1.15,2013-07-23 04:16:00,
2013-07-22 21:21:00,73.3,61.7,29.85,West,268,0.0,2.0,67,0.00,,,0.01,Wunderground v.1.15,2013-07-23 04:21:00,
2013-07-22 21:26:00,73.1,61.9,29.84,WSW,256,0.0,2.0,68,0.00,,,0.01,Wunderground v.1.15,2013-07-23 04:26:00,
2013-07-22 21:31:00,72.9,61.7,29.84,WSW,253,0.0,2.0,68,0.00,,,0.01,Wunderground v.1.15,2013-07-23 04:31:00,
2013-07-22 21:36:00,72.8,61.6,29.84,West,263,0.0,3.0,68,0.00,,,0.01,Wunderground v.1.15,2013-07-23 04:36:00,
2013-07-22 21:41:00,72.6,61.4,29.84,WSW,242,0.0,0.0,68,0.00,,,0.01,Wunderground v.1.15,2013-07-23 04:41:00,
2013-07-22 21:46:00,72.4,61.2,29.84,WSW,241,0.0,0.0,68,0.00,,,0.01,Wunderground v.1.15,2013-07-23 04:46:00,
2013-07-22 21:51:00,72.2,61.0,29.84,SSW,206,0.0,0.0,68,0.00,,,0.01,Wunderground v.1.15,2013-07-23 04:51:00,
2013-07-22 21:56:00,72.0,61.3,29.84,SW,222,0.0,0.0,69,0.00,,,0.01,Wunderground v.1.15,2013-07-23 04:56:00,
2013-07-22 22:01:00,71.7,61.0,29.85,WSW,242,0.0,1.0,69,0.00,,,0.01,Wunderground v.1.15,2013-07-23 05:01:00,
2013-07-22 22:06:00,71.5,61.2,29.85,West,265,0.0,4.0,70,0.00,,,0.01,Wunderground v.1.15,2013-07-23 05:06:00,
2013-07-22 22:11:00,71.3,61.0,29.85,West,263,0.0,5.0,70,0.00,,,0.01,Wunderground v.1.15,2013-07-23 05:11:00,
2013-07-22 22:16:00,71.2,60.9,29.85,West,260,0.0,5.0,70,0.00,,,0.01,Wunderground v.1.15,2013-07-23 05:16:00,
2013-07-22 22:21:00,71.1,60.8,29.85,West,260,0.0,0.0,70,0.00,,,0.01,Wunderground v.1.15,2013-07-23 05:21:00,
2013-07-22 22:26:00,70.9,61.0,29.85,West,260,0.0,1.0,71,0.00,,,0.01,Wunderground v.1.15,2013-07-23 05:26:00,
2013-07-22 22:32:00,70.7,60.8,29.84,West,259,0.0,0.0,71,0.00,,,0.01,Wunderground v.1.15,2013-07-23 05:32:00,
2013-07-22 22:36:00,70.6,60.7,29.84,WSW,255,0.0,0.0,71,0.00,,,0.01,Wunderground v.1.15,2013-07-23 05:36:00,
2013-07-22 22:42:00,70.5,61.0,29.84,WSW,254,0.0,0.0,72,0.00,,,0.01,Wunderground v.1.15,2013-07-23 05:42:00,
2013-07-22 22:47:00,70.3,60.8,29.84,WSW,254,0.0,0.0,72,0.00,,,0.01,Wunderground v.1.15,2013-07-23 05:47:00,
2013-07-22 22:52:00,70.1,60.7,29.84,WSW,255,0.0,0.0,72,0.00,,,0.01,Wunderground v.1.15,2013-07-23 05:52:00,
2013-07-22 22:57:00,69.9,60.8,29.84,WSW,255,0.0,0.0,73,0.00,,,0.01,Wunderground v.1.15,2013-07-23 05:57:00,
2013-07-22 23:02:00,69.8,60.8,29.84,WSW,254,0.0,0.0,73,0.00,,,0.01,Wunderground v.1.15,2013-07-23 06:02:00,
2013-07-22 23:07:00,69.6,60.6,29.84,WSW,255,0.0,0.0,73,0.00,,,0.01,Wunderground v.1.15,2013-07-23 06:07:00,
2013-07-22 23:12:00,69.4,60.8,29.84,WSW,255,0.0,0.0,74,0.00,,,0.01,Wunderground v.1.15,2013-07-23 06:12:00,
2013-07-22 23:17:00,69.3,60.7,29.85,WSW,255,0.0,0.0,74,0.00,,,0.01,Wunderground v.1.15,2013-07-23 06:17:00,
2013-07-22 23:22:00,69.3,60.7,29.84,WSW,254,0.0,0.0,74,0.00,,,0.01,Wunderground v.1.15,2013-07-23 06:22:00,
2013-07-22 23:27:00,69.2,60.6,29.84,WSW,255,0.0,0.0,74,0.00,,,0.01,Wunderground v.1.15,2013-07-23 06:27:00,
2013-07-22 23:32:00,69.1,60.5,29.84,WSW,254,0.0,0.0,74,0.00,,,0.01,Wunderground v.1.15,2013-07-23 06:32:00,
2013-07-22 23:37:00,68.8,60.2,29.85,WSW,254,0.0,0.0,74,0.00,,,0.01,Wunderground v.1.15,2013-07-23 06:37:00,
2013-07-22 23:42:00,68.6,60.0,29.85,WSW,254,0.0,0.0,74,0.00,,,0.01,Wunderground v.1.15,2013-07-23 06:42:00,
2013-07-22 23:47:00,68.4,60.2,29.85,WSW,255,0.0,0.0,75,0.00,,,0.01,Wunderground v.1.15,2013-07-23 06:47:00,
2013-07-22 23:52:00,68.2,60.3,29.85,WSW,255,0.0,0.0,76,0.00,,,0.01,Wunderground v.1.15,2013-07-23 06:52:00,
2013-07-22 23:57:00,68.1,60.2,29.85,WSW,255,0.0,0.0,76,0.00,,,0.01,Wunderground v.1.15,2013-07-23 06:57:00,